Time;durP1;ratioP1;P1;durP2;ratioP2;P2;SDS_P1;SDS_P2;PMS_P1;PMS_P2;Temp;Humidity;BMP_temperature;BMP_pressure;BME280_temperature;BME280_humidity;BME280_pressure;Samples;Min_cycle;Max_cycle;Signal;HPM_P1;HPM_P2
2022/10/17 00:00:40;;;;;;;34.15;17.82;;;;;;;3.80;72.45;102612.00;1711361;84;20912;-85
2022/10/17 00:03:07;;;;;;;35.55;17.27;;;;;;;3.79;72.29;102614.14;1710702;83;21259;-86
2022/10/17 00:05:41;;;;;;;27.67;15.15;;;;;;;3.77;72.24;102613.72;1671717;84;21029;-86
2022/10/17 00:08:09;;;;;;;22.70;14.45;;;;;;;3.71;72.08;102610.27;1652914;87;20981;-82
2022/10/17 00:10:39;;;;;;;25.90;16.32;;;;;;;3.58;72.17;102604.62;1709648;83;20932;-86
2022/10/17 00:13:06;;;;;;;25.45;14.80;;;;;;;3.46;72.54;102609.78;1708389;84;20956;-87
2022/10/17 00:15:35;;;;;;;29.35;15.35;;;;;;;3.39;73.08;102617.98;1671600;85;20891;-85
2022/10/17 00:18:03;;;;;;;31.00;15.10;;;;;;;3.37;73.65;102614.52;1652117;87;20915;-86
2022/10/17 00:20:31;;;;;;;28.25;15.85;;;;;;;3.39;73.98;102620.58;1652186;87;20966;-86
2022/10/17 00:22:59;;;;;;;29.25;17.30;;;;;;;3.41;73.88;102614.97;1708377;84;21433;-85
2022/10/17 00:25:27;;;;;;;27.07;15.55;;;;;;;3.40;73.86;102621.03;1708501;84;20924;-86
2022/10/17 00:27:54;;;;;;;35.10;17.75;;;;;;;3.43;73.96;102631.40;1671932;85;21268;-85
2022/10/17 00:33:04;;;;;;;31.82;17.62;;;;;;;3.53;73.55;102630.56;1798502;79;22663;-85
2022/10/17 00:35:31;;;;;;;29.67;16.60;;;;;;;3.49;73.14;102629.23;1759563;80;20920;-85
2022/10/17 00:37:57;;;;;;;32.48;19.50;;;;;;;3.48;73.04;102628.38;1759178;80;21933;-85
2022/10/17 00:40:24;;;;;;;31.42;19.52;;;;;;;3.45;73.12;102634.01;1759445;80;21469;-85
2022/10/17 00:42:52;;;;;;;29.40;16.95;;;;;;;3.41;73.12;102636.16;1759099;80;21409;-85
2022/10/17 00:45:23;;;;;;;24.45;16.02;;;;;;;3.36;73.21;102633.95;1758749;80;20924;-85
2022/10/17 00:48:00;;;;;;;34.73;17.15;;;;;;;3.28;73.49;102635.25;1758798;81;20967;-86
2022/10/17 00:50:26;;;;;;;41.68;18.65;;;;;;;3.23;73.73;102636.97;1758646;81;21777;-86
2022/10/17 00:52:53;;;;;;;38.80;17.30;;;;;;;3.19;73.77;102634.78;1760332;80;21011;-86
2022/10/17 00:55:28;;;;;;;41.15;20.37;;;;;;;3.17;73.70;102636.50;1758435;80;20923;-85
2022/10/17 00:57:56;;;;;;;37.60;17.85;;;;;;;3.17;73.74;102642.12;1758434;80;21417;-84
2022/10/17 01:06:35;;;;;;;46.83;20.55;;;;;;;3.16;73.69;102645.16;1658880;78;20962;-83
2022/10/17 01:09:02;;;;;;;38.48;17.25;;;;;;;3.15;73.50;102642.55;1653806;85;20951;-84
2022/10/17 01:11:37;;;;;;;33.50;17.87;;;;;;;3.11;73.49;102646.84;1653749;85;20903;-82
2022/10/17 01:14:12;;;;;;;35.17;18.67;;;;;;;3.05;73.39;102650.73;1653814;86;21507;-82
2022/10/17 01:17:03;;;;;;;37.83;17.62;;;;;;;3.00;73.72;102644.23;1653965;86;21078;-83
2022/10/17 01:20:00;;;;;;;31.17;16.62;;;;;;;3.00;73.90;102652.42;1653729;85;20882;-82
2022/10/17 01:22:47;;;;;;;35.05;19.12;;;;;;;2.98;73.84;102647.66;1653497;85;20998;-82
2022/10/17 01:25:30;;;;;;;32.55;16.12;;;;;;;2.97;73.84;102644.20;1653703;85;20957;-83
2022/10/17 01:28:27;;;;;;;30.48;14.38;;;;;;;2.99;73.95;102644.22;1640374;86;20962;-83
2022/10/17 01:31:13;;;;;;;32.73;15.90;;;;;;;3.00;74.21;102638.16;1634498;86;21285;-82
2022/10/17 01:33:52;;;;;;;33.48;16.00;;;;;;;2.98;73.86;102635.99;1653805;85;20918;-83
2022/10/17 01:36:40;;;;;;;36.48;17.92;;;;;;;2.88;73.88;102634.66;1654043;86;21025;-84
2022/10/17 01:39:25;;;;;;;34.27;16.67;;;;;;;2.85;74.26;102641.58;1634637;85;20974;-81
2022/10/17 01:42:08;;;;;;;36.55;19.12;;;;;;;2.88;74.49;102641.14;1653776;86;21017;-82
2022/10/17 01:44:49;;;;;;;34.78;19.37;;;;;;;2.93;74.45;102639.86;1653452;85;21227;-83
2022/10/17 01:47:20;;;;;;;44.60;19.65;;;;;;;2.97;74.04;102638.16;1579414;88;21040;-82
2022/10/17 01:49:49;;;;;;;36.60;19.40;;;;;;;2.96;73.64;102641.19;1580032;90;21035;-83
2022/10/17 01:52:20;;;;;;;34.03;18.82;;;;;;;2.92;73.34;102638.14;1579667;90;20996;-83
2022/10/17 01:54:54;;;;;;;40.38;18.40;;;;;;;2.90;73.22;102642.45;1579827;90;21044;-83
2022/10/17 01:57:38;;;;;;;29.98;17.75;;;;;;;2.87;73.29;102642.02;1579895;90;21268;-82
2022/10/17 02:00:09;;;;;;;29.12;14.95;;;;;;;2.83;73.42;102636.81;1579802;90;20949;-83
2022/10/17 02:02:38;;;;;;;28.02;15.18;;;;;;;2.80;73.56;102638.97;1579447;90;20940;-83
2022/10/17 02:05:05;;;;;;;28.25;15.40;;;;;;;2.78;73.51;102644.56;1579482;89;21054;-83
2022/10/17 02:07:32;;;;;;;23.67;13.32;;;;;;;2.78;73.50;102647.56;1577559;91;20992;-81
2022/10/17 02:09:59;;;;;;;26.50;14.60;;;;;;;2.77;73.57;102645.84;1577974;91;21249;-82
2022/10/17 02:12:45;;;;;;;20.52;13.72;;;;;;;2.79;73.86;102641.54;1577630;91;20981;-82
2022/10/17 02:15:29;;;;;;;23.80;14.65;;;;;;;2.80;73.88;102638.97;1562403;90;20961;-81
2022/10/17 02:18:24;;;;;;;25.45;13.48;;;;;;;2.83;73.99;102629.90;1579563;91;21091;-82
2022/10/17 02:20:56;;;;;;;22.70;13.80;;;;;;;2.85;73.99;102638.98;1558910;91;20961;-81
2022/10/17 02:23:41;;;;;;;29.60;14.43;;;;;;;2.86;74.13;102644.59;1579255;88;21178;-83
2022/10/17 02:26:27;;;;;;;27.17;13.62;;;;;;;2.83;73.98;102639.41;1615995;88;20908;-81
2022/10/17 02:29:08;;;;;;;26.82;15.25;;;;;;;2.78;73.73;102641.97;1620977;88;20995;-83
2022/10/17 02:31:43;;;;;;;32.25;15.25;;;;;;;2.73;73.54;102643.66;1625609;87;21004;-83
2022/10/17 02:34:24;;;;;;;35.48;16.82;;;;;;;2.67;73.44;102643.64;1626391;87;20892;-82
2022/10/17 02:36:56;;;;;;;33.80;15.50;;;;;;;2.63;73.56;102650.95;1626382;87;21254;-83
2022/10/17 02:39:23;;;;;;;29.60;14.50;;;;;;;2.60;73.51;102650.91;1626257;87;21340;-84
2022/10/17 02:41:50;;;;;;;25.92;12.07;;;;;;;2.58;73.54;102644.45;1626382;87;20948;-82
2022/10/17 02:44:17;;;;;;;39.27;17.65;;;;;;;2.56;73.71;102645.31;1626585;87;20976;-83
2022/10/17 02:46:51;;;;;;;53.17;37.98;;;;;;;2.55;73.96;102651.33;1627343;87;21468;-82
2022/10/17 02:49:32;;;;;;;34.73;23.60;;;;;;;2.54;73.92;102654.79;1627727;87;21318;-83
2022/10/17 02:52:25;;;;;;;34.80;20.85;;;;;;;2.52;74.08;102654.77;1644007;86;20928;-82
2022/10/17 02:55:18;;;;;;;32.17;15.72;;;;;;;2.52;74.00;102652.18;1629219;85;20913;-82
2022/10/17 02:57:50;;;;;;;32.65;17.23;;;;;;;2.51;74.19;102650.43;1629236;85;20964;-82
2022/10/17 03:00:16;;;;;;;39.50;18.07;;;;;;;2.52;74.12;102655.20;1628442;87;21020;-82
2022/10/17 03:02:49;;;;;;;51.48;21.40;;;;;;;2.53;73.92;102661.67;1626400;86;21141;-81
2022/10/17 03:05:23;;;;;;;51.77;23.32;;;;;;;2.53;73.58;102663.39;1628183;86;21089;-83
2022/10/17 03:07:50;;;;;;;39.25;19.48;;;;;;;2.52;73.33;102668.16;1644526;85;24398;-81
2022/10/17 03:10:19;;;;;;;32.63;16.77;;;;;;;2.49;73.05;102670.30;1645650;85;20974;-83
2022/10/17 03:12:47;;;;;;;27.13;14.95;;;;;;;2.45;72.99;102663.36;1645624;85;20899;-82
2022/10/17 03:15:14;;;;;;;32.23;16.67;;;;;;;2.42;73.20;102664.61;1645659;87;21249;-83
2022/10/17 03:17:42;;;;;;;36.70;17.15;;;;;;;2.41;73.45;102666.78;1645474;85;20914;-82
2022/10/17 03:20:10;;;;;;;32.73;16.70;;;;;;;2.37;73.92;102665.88;1645571;87;20918;-83
2022/10/17 03:22:37;;;;;;;27.05;15.28;;;;;;;2.36;74.22;102669.34;1645612;87;21475;-83
2022/10/17 03:25:05;;;;;;;27.15;14.87;;;;;;;2.36;74.28;102669.77;1645773;85;20981;-82
2022/10/17 03:27:33;;;;;;;28.52;14.07;;;;;;;2.38;74.32;102670.63;1646518;87;21159;-83
2022/10/17 03:30:00;;;;;;;26.80;15.55;;;;;;;2.38;74.43;102663.75;1624752;87;20919;-82
2022/10/17 03:32:26;;;;;;;26.23;14.25;;;;;;;2.39;74.55;102659.43;1645818;86;20923;-82
2022/10/17 03:34:54;;;;;;;36.60;16.90;;;;;;;2.40;74.54;102665.03;1645865;85;21041;-82
2022/10/17 03:37:20;;;;;;;30.88;18.23;;;;;;;2.40;74.48;102669.80;1645921;85;21392;-82
2022/10/17 03:39:47;;;;;;;31.52;17.12;;;;;;;2.40;74.26;102672.39;1646019;85;21164;-80
2022/10/17 03:42:15;;;;;;;34.95;16.62;;;;;;;2.39;74.02;102671.08;1645625;87;20962;-83
2022/10/17 03:44:42;;;;;;;33.70;17.27;;;;;;;2.37;73.71;102673.65;1624992;87;20939;-82
2022/10/17 03:47:08;;;;;;;26.05;14.65;;;;;;;2.35;73.54;102671.91;1645708;85;20954;-82
2022/10/17 03:49:36;;;;;;;26.37;13.60;;;;;;;2.33;73.58;102673.62;1645712;85;21388;-81
2022/10/17 03:52:03;;;;;;;30.68;15.43;;;;;;;2.27;73.65;102672.73;1645653;87;21116;-83
2022/10/17 03:54:30;;;;;;;34.48;16.42;;;;;;;2.25;73.74;102677.02;1624743;87;20911;-83
2022/10/17 03:56:56;;;;;;;39.00;17.82;;;;;;;2.26;73.70;102677.88;1648022;87;20998;-82
2022/10/17 03:59:23;;;;;;;24.95;15.28;;;;;;;2.25;73.66;102683.49;1646492;87;21017;-82
2022/10/17 04:01:52;;;;;;;26.07;13.43;;;;;;;2.25;73.76;102690.40;1645042;85;20931;-82
2022/10/17 04:04:18;;;;;;;28.62;16.62;;;;;;;2.25;73.91;102691.69;1645632;87;21211;-83
2022/10/17 04:06:45;;;;;;;24.12;15.32;;;;;;;2.26;73.80;102694.70;1645520;85;21555;-84
2022/10/17 04:09:13;;;;;;;23.83;14.15;;;;;;;2.26;73.67;102705.06;1625090;86;21018;-84
2022/10/17 04:11:41;;;;;;;25.45;14.45;;;;;;;2.26;73.87;102705.92;1645101;87;20931;-82
2022/10/17 04:14:09;;;;;;;23.80;13.60;;;;;;;2.27;73.91;102705.09;1645542;85;20903;-81
2022/10/17 04:16:38;;;;;;;22.13;12.65;;;;;;;2.26;73.93;102711.09;1645638;86;20922;-83
2022/10/17 04:19:06;;;;;;;99.45;43.98;;;;;;;2.26;73.95;102713.69;1645100;85;20978;-84
2022/10/17 04:21:36;;;;;;;129.90;59.48;;;;;;;2.26;73.99;102720.59;1645492;85;20947;-83
2022/10/17 04:24:07;;;;;;;130.03;54.88;;;;;;;2.26;74.08;102718.00;1645604;86;20978;-84
2022/10/17 04:26:36;;;;;;;112.85;48.08;;;;;;;2.27;74.27;102722.34;1644907;85;20970;-81
2022/10/17 04:29:02;;;;;;;162.15;62.93;;;;;;;2.28;74.22;102721.05;1645605;85;21256;-83
2022/10/17 04:31:31;;;;;;;103.85;43.50;;;;;;;2.26;74.50;102721.45;1645690;85;20962;-84
2022/10/17 04:33:59;;;;;;;95.87;43.25;;;;;;;2.30;74.63;102730.56;1644970;86;20911;-84
2022/10/17 04:36:26;;;;;;;95.10;41.80;;;;;;;2.34;74.76;102722.83;1645578;85;21092;-83
2022/10/17 04:38:53;;;;;;;99.03;41.58;;;;;;;2.36;74.41;102725.00;1645646;87;21045;-83
2022/10/17 04:41:21;;;;;;;92.00;40.00;;;;;;;2.37;74.50;102727.16;1645599;85;20899;-83
2022/10/17 04:43:48;;;;;;;83.00;37.00;;;;;;;2.41;74.73;102733.67;1645501;85;21001;-83
2022/10/17 08:55:35;;;;;;;12.33;6.95;;;;;;;26.08;26.79;102740.17;1760910;80;21056;-88
2022/10/17 08:58:01;;;;;;;9.93;6.12;;;;;;;26.21;25.99;102731.31;1750717;80;20889;-85
2022/10/17 09:00:29;;;;;;;8.53;6.30;;;;;;;26.15;25.88;102721.99;1743824;81;20861;-86
2022/10/17 09:03:21;;;;;;;9.95;6.42;;;;;;;26.12;25.76;102726.80;1745255;80;21238;-84
2022/10/17 09:06:14;;;;;;;14.73;6.70;;;;;;;26.08;25.26;102723.56;1743813;80;21017;-86
2022/10/17 09:09:10;;;;;;;7.83;6.87;;;;;;;25.90;25.23;102723.91;1746623;80;20873;-84
2022/10/17 09:11:53;;;;;;;7.15;6.12;;;;;;;25.82;26.08;102727.28;1741820;80;21449;-87
2022/10/17 09:14:48;;;;;;;12.82;7.15;;;;;;;25.77;25.77;102728.21;1756121;80;20900;-86
2022/10/17 09:17:35;;;;;;;9.38;6.12;;;;;;;25.58;26.12;102729.02;1753758;80;21039;-86
2022/10/17 09:20:27;;;;;;;14.30;7.28;;;;;;;25.34;26.14;102732.92;1757088;80;20795;-82
2022/10/17 09:23:04;;;;;;;7.75;6.45;;;;;;;25.14;26.37;102729.30;1752699;80;21042;-84
2022/10/17 09:25:42;;;;;;;11.18;7.03;;;;;;;25.01;26.40;102710.77;1752096;80;20944;-87
2022/10/17 09:28:24;;;;;;;13.98;7.17;;;;;;;25.06;26.85;102723.79;1779511;80;21101;-85
2022/10/17 09:31:19;;;;;;;7.62;6.70;;;;;;;25.18;26.38;102721.34;1781115;80;21381;-87
2022/10/17 09:33:49;;;;;;;14.33;6.75;;;;;;;25.22;26.29;102719.27;1781956;78;20978;-86
2022/10/17 09:36:23;;;;;;;11.45;7.97;;;;;;;25.34;26.54;102719.50;1782981;79;21518;-86
2022/10/17 09:38:53;;;;;;;15.72;11.10;;;;;;;25.58;26.79;102714.25;1765086;80;20983;-87
2022/10/17 09:41:39;;;;;;;16.20;11.25;;;;;;;25.69;25.85;102711.92;1780664;78;20927;-86
2022/10/17 09:44:24;;;;;;;13.72;9.73;;;;;;;25.80;26.12;102711.79;1779738;78;21078;-86
2022/10/17 09:47:03;;;;;;;15.98;9.55;;;;;;;26.13;26.38;102707.00;1779328;78;20950;-85
2022/10/17 09:49:39;;;;;;;14.98;9.95;;;;;;;26.46;25.74;102698.93;1779311;78;20884;-88
2022/10/17 09:52:21;;;;;;;19.02;11.35;;;;;;;26.62;24.97;102697.00;1781659;80;21026;-84
2022/10/17 09:55:03;;;;;;;17.70;10.38;;;;;;;26.70;24.97;102698.43;1782503;78;21489;-87
2022/10/17 09:57:51;;;;;;;15.60;9.63;;;;;;;26.65;24.88;102698.88;1749926;80;21232;-86
2022/10/17 10:00:28;;;;;;;14.45;10.13;;;;;;;26.66;25.08;102693.02;1755529;80;21424;-87
2022/10/17 10:03:24;;;;;;;13.75;9.43;;;;;;;26.72;25.09;102692.41;1775316;80;20996;-86
2022/10/17 10:06:16;;;;;;;16.07;8.33;;;;;;;26.91;25.13;102694.17;1762435;80;20900;-86
2022/10/17 10:08:59;;;;;;;12.30;7.53;;;;;;;27.06;24.20;102683.25;1771805;80;21350;-85
2022/10/17 10:11:49;;;;;;;10.72;7.78;;;;;;;26.98;23.83;102672.38;1747114;80;21563;-86
2022/10/17 10:14:34;;;;;;;10.98;6.33;;;;;;;26.94;23.99;102678.21;1774690;80;20940;-85
2022/10/17 10:17:05;;;;;;;8.83;5.28;;;;;;;27.00;23.71;102676.27;1781480;78;20995;-85
2022/10/17 10:19:38;;;;;;;9.88;5.30;;;;;;;27.02;23.66;102681.85;1781264;78;20975;-84
2022/10/17 10:22:09;;;;;;;8.43;5.25;;;;;;;27.06;23.63;102685.11;1781043;78;20908;-85
2022/10/17 10:24:37;;;;;;;7.37;5.05;;;;;;;27.17;23.45;102675.94;1775310;78;21108;-84
2022/10/17 10:27:04;;;;;;;11.18;4.55;;;;;;;27.18;23.29;102671.76;1777778;78;20920;-84
2022/10/17 10:29:50;;;;;;;11.40;4.30;;;;;;;27.17;23.24;102669.20;1777091;78;21189;-86
2022/10/17 10:32:34;;;;;;;6.40;4.28;;;;;;;27.13;23.25;102674.58;1780534;78;20959;-86
2022/10/17 10:35:24;;;;;;;7.72;4.53;;;;;;;26.95;23.30;102681.27;1753896;79;20897;-84
2022/10/17 10:37:55;;;;;;;9.75;4.33;;;;;;;26.67;23.46;102683.94;1714919;81;21159;-85
2022/10/17 10:40:36;;;;;;;9.18;5.00;;;;;;;26.10;23.81;102683.94;1762589;80;20892;-85
2022/10/17 10:43:02;;;;;;;7.08;4.58;;;;;;;25.43;24.47;102681.55;1744563;80;20900;-85
2022/10/17 10:45:39;;;;;;;9.08;5.45;;;;;;;24.94;24.92;102683.25;1763086;80;20920;-85
2022/10/17 10:48:27;;;;;;;7.28;5.08;;;;;;;24.68;25.57;102682.39;1739346;80;20912;-84
2022/10/17 10:51:13;;;;;;;7.35;5.03;;;;;;;24.40;25.81;102684.73;1767367;80;21167;-85
2022/10/17 10:54:06;;;;;;;10.32;4.80;;;;;;;23.87;26.22;102686.63;1734972;80;21064;-84
2022/10/17 10:56:46;;;;;;;10.48;4.72;;;;;;;23.38;26.93;102691.02;1756856;80;20931;-85
2022/10/17 10:59:32;;;;;;;7.22;5.10;;;;;;;22.75;27.53;102685.35;1748226;80;20908;-85
2022/10/17 11:02:37;;;;;;;8.35;5.47;;;;;;;22.35;28.20;102686.29;1760798;80;20932;-84
2022/10/17 11:05:24;;;;;;;12.53;5.67;;;;;;;22.03;28.70;102682.03;1772796;79;21289;-86
2022/10/17 11:08:11;;;;;;;10.85;6.20;;;;;;;21.65;29.22;102679.09;1772404;80;21141;-85
2022/10/17 11:10:54;;;;;;;13.18;5.30;;;;;;;21.28;30.00;102677.78;1764860;79;20956;-84
2022/10/17 11:13:27;;;;;;;9.70;5.78;;;;;;;20.87;30.63;102669.09;1715513;81;20861;-85
2022/10/17 11:16:23;;;;;;;10.45;5.65;;;;;;;20.48;31.46;102667.41;1744089;80;20976;-84
2022/10/17 11:19:25;;;;;;;11.28;5.35;;;;;;;20.14;31.39;102664.37;1750569;80;21141;-84
2022/10/17 11:22:02;;;;;;;7.08;5.33;;;;;;;19.75;31.93;102660.79;1721891;82;21023;-84
2022/10/17 11:24:40;;;;;;;9.13;5.60;;;;;;;19.38;33.00;102654.33;1763174;80;21476;-84
2022/10/17 11:27:07;;;;;;;10.90;5.35;;;;;;;19.03;33.70;102658.31;1750738;80;21026;-84
2022/10/17 11:29:38;;;;;;;12.40;5.92;;;;;;;18.69;33.97;102649.37;1755811;80;20956;-85
2022/10/17 11:32:16;;;;;;;8.43;5.37;;;;;;;18.41;34.57;102646.61;1744527;80;21373;-85
2022/10/17 11:34:47;;;;;;;13.75;5.62;;;;;;;18.23;34.84;102647.25;1771733;78;21011;-84
2022/10/17 11:37:22;;;;;;;9.45;5.65;;;;;;;18.08;34.92;102638.87;1772363;78;21358;-84
2022/10/17 11:39:55;;;;;;;25.05;6.25;;;;;;;17.94;35.53;102637.04;1770168;79;20976;-82
2022/10/17 11:42:30;;;;;;;15.23;5.75;;;;;;;17.78;36.02;102630.87;1777699;78;20974;-84
2022/10/17 11:45:05;;;;;;;12.90;5.75;;;;;;;17.65;35.84;102630.72;1778647;78;21378;-85
2022/10/17 11:47:53;;;;;;;8.65;5.25;;;;;;;17.54;36.22;102640.65;1778260;78;20919;-84
2022/10/17 11:50:28;;;;;;;7.20;5.62;;;;;;;17.42;36.52;102651.09;1784471;79;20936;-85
2022/10/17 11:53:02;;;;;;;8.33;4.67;;;;;;;17.24;36.86;102663.11;1781062;80;20983;-84
2022/10/17 11:55:30;;;;;;;10.05;5.28;;;;;;;17.06;36.97;102657.03;1780038;78;20908;-84
2022/10/17 11:58:20;;;;;;;9.63;5.97;;;;;;;16.91;37.48;102655.21;1782049;80;23152;-85
2022/10/17 12:00:59;;;;;;;8.90;5.10;;;;;;;16.81;37.79;102662.81;1781721;78;21401;-84
2022/10/17 12:04:16;;;;;;;13.88;5.62;;;;;;;16.72;38.20;102664.61;1780410;79;21109;-86
2022/10/17 12:07:20;;;;;;;9.83;5.67;;;;;;;16.64;38.50;102662.82;1780637;78;21035;-85
2022/10/17 12:10:08;;;;;;;13.78;5.42;;;;;;;16.54;38.94;102664.63;1777127;78;20982;-85
2022/10/17 12:12:35;;;;;;;41.30;25.90;;;;;;;16.47;39.20;102669.84;1777790;80;21823;-85
2022/10/17 12:15:26;;;;;;;12.00;6.10;;;;;;;16.39;39.63;102661.94;1780293;78;20904;-84
2022/10/17 12:18:01;;;;;;;11.95;5.35;;;;;;;16.31;39.17;102667.13;1778143;78;21010;-84
2022/10/17 12:20:35;;;;;;;38.55;25.65;;;;;;;16.27;39.53;102663.41;1777139;78;21504;-82
2022/10/17 12:23:13;;;;;;;11.88;6.37;;;;;;;16.25;40.32;102666.59;1779532;78;20896;-86
2022/10/17 12:25:52;;;;;;;9.83;5.08;;;;;;;16.25;40.01;102662.18;1775940;78;21443;-85
2022/10/17 12:28:44;;;;;;;16.07;8.93;;;;;;;16.26;39.88;102668.33;1776237;78;21405;-84
2022/10/17 12:31:24;;;;;;;10.60;5.85;;;;;;;16.25;40.15;102667.91;1777335;78;20845;-85
2022/10/17 12:34:00;;;;;;;6.55;4.15;;;;;;;16.21;40.06;102666.36;1742656;82;20920;-85
2022/10/17 12:36:32;;;;;;;7.42;4.78;;;;;;;16.19;40.28;102659.84;1776487;78;20900;-84
2022/10/17 12:39:10;;;;;;;8.93;3.80;;;;;;;16.15;40.13;102652.51;1779952;78;21914;-84
2022/10/17 12:41:43;;;;;;;8.05;4.15;;;;;;;16.13;40.17;102650.87;1778460;78;20873;-85
2022/10/17 12:44:20;;;;;;;7.40;3.70;;;;;;;16.05;40.18;102653.92;1780820;78;20931;-85
2022/10/17 12:46:58;;;;;;;7.75;4.17;;;;;;;16.01;40.52;102656.78;1780982;78;21018;-85
2022/10/17 12:49:45;;;;;;;7.25;3.02;;;;;;;15.96;41.08;102651.72;1783210;78;20979;-85
2022/10/17 12:52:34;;;;;;;6.90;3.40;;;;;;;15.89;41.30;102648.52;1768511;80;21243;-87
2022/10/17 12:55:13;;;;;;;4.95;2.98;;;;;;;15.83;41.53;102647.53;1778564;78;20896;-87
2022/10/17 12:58:00;;;;;;;5.10;3.55;;;;;;;15.75;41.51;102639.95;1777761;78;21007;-86
2022/10/17 13:00:38;;;;;;;6.85;3.30;;;;;;;15.71;42.12;102636.22;1776248;78;21030;-85
2022/10/17 13:03:13;;;;;;;6.37;2.72;;;;;;;15.67;41.81;102642.55;1781718;78;21177;-84
2022/10/17 13:05:44;;;;;;;5.85;3.08;;;;;;;15.55;42.17;102646.19;1779465;78;21983;-88
2022/10/17 13:08:19;;;;;;;8.33;3.90;;;;;;;15.55;42.17;102646.19;1777013;78;21034;-86
2022/10/17 13:10:47;;;;;;;;;;;;;;;15.51;42.19;102636.69;1780376;80;20861;-86
2022/10/17 13:13:25;;;;;;;7.80;3.22;;;;;;;15.46;42.35;102636.53;1777014;78;20139;-86
2022/10/17 13:15:54;;;;;;;7.78;4.00;;;;;;;15.39;42.68;102625.39;1776576;78;20987;-85
2022/10/17 13:18:24;;;;;;;4.25;3.15;;;;;;;15.34;43.10;102620.80;1775990;80;21281;-85
2022/10/17 13:21:04;;;;;;;5.80;3.58;;;;;;;15.28;43.06;102610.52;1780516;78;20979;-85
2022/10/17 13:23:36;;;;;;;6.15;4.10;;;;;;;15.15;42.99;102618.64;1759367;80;20956;-87
2022/10/17 13:26:08;;;;;;;5.92;3.52;;;;;;;15.09;43.63;102615.33;1771483;80;21398;-85
2022/10/17 13:28:35;;;;;;;6.03;3.83;;;;;;;15.09;43.63;102615.33;1753267;80;21019;-86
2022/10/17 13:31:02;;;;;;;6.58;3.60;;;;;;;15.02;43.79;102610.42;1780506;78;21157;-85
2022/10/17 13:33:38;;;;;;;7.75;3.87;;;;;;;14.98;43.79;102616.30;1779700;80;20923;-86
2022/10/17 13:36:11;;;;;;;;;;;;;;;14.93;44.39;102615.67;1779457;78;20952;-85
2022/10/17 13:38:38;;;;;;;4.30;3.15;;;;;;;14.87;44.32;102617.27;1777668;80;20105;-85
2022/10/17 13:41:12;;;;;;;5.62;3.65;;;;;;;14.81;44.53;102618.42;1780073;78;20972;-84
2022/10/17 13:43:40;;;;;;;9.30;3.42;;;;;;;14.70;45.03;102615.41;1781099;78;21269;-86
2022/10/17 13:46:08;;;;;;;7.92;3.58;;;;;;;14.70;45.03;102615.41;1780795;78;21015;-85
2022/10/17 13:48:36;;;;;;;5.65;3.55;;;;;;;14.64;45.54;102620.97;1776826;78;20991;-85
2022/10/17 13:51:04;;;;;;;5.62;3.35;;;;;;;14.56;45.76;102608.56;1782346;78;20944;-86
2022/10/17 13:53:38;;;;;;;5.47;3.55;;;;;;;14.48;46.10;102603.61;1783190;78;21022;-85
2022/10/17 13:56:21;;;;;;;6.20;3.30;;;;;;;14.40;46.31;102608.36;1780181;78;21294;-85
2022/10/17 13:58:56;;;;;;;4.95;3.67;;;;;;;14.33;46.56;102609.09;1781573;78;20983;-85
2022/10/17 14:01:26;;;;;;;;;;;;;;;14.25;46.95;102605.48;1784726;78;20892;-85
2022/10/17 14:03:52;;;;;;;4.70;4.25;;;;;;;14.18;46.83;102609.28;1780647;78;20081;-84
2022/10/17 14:06:26;;;;;;;6.28;3.62;;;;;;;14.10;46.98;102607.47;1778960;78;20924;-86
2022/10/17 14:09:04;;;;;;;5.15;3.77;;;;;;;14.03;47.19;102606.02;1775125;78;21511;-84
2022/10/17 14:11:40;;;;;;;5.17;3.20;;;;;;;13.88;47.79;102597.81;1757831;78;20825;-86
2022/10/17 14:14:22;;;;;;;6.25;3.42;;;;;;;13.88;47.79;102597.81;1756765;78;21052;-83
2022/10/17 14:16:50;;;;;;;11.78;3.45;;;;;;;13.83;48.27;102604.22;1745198;80;20939;-85
2022/10/17 14:19:27;;;;;;;7.62;4.25;;;;;;;13.72;48.57;102594.12;1742757;80;20983;-85
2022/10/17 14:22:13;;;;;;;10.13;5.60;;;;;;;13.64;48.90;102586.98;1776746;78;21176;-84
2022/10/17 14:24:42;;;;;;;10.10;6.35;;;;;;;13.56;49.22;102596.53;1764175;80;20999;-86
2022/10/17 14:27:34;;;;;;;8.65;4.28;;;;;;;13.47;49.45;102588.97;1759212;80;20996;-85
2022/10/17 14:30:05;;;;;;;8.08;4.05;;;;;;;13.39;49.78;102587.13;1734563;80;20987;-84
2022/10/17 14:32:35;;;;;;;6.90;3.75;;;;;;;13.30;50.32;102589.67;1739925;80;20853;-85
2022/10/17 14:35:03;;;;;;;10.95;4.10;;;;;;;13.21;50.71;102598.77;1740838;80;21261;-85
2022/10/17 14:37:46;;;;;;;9.65;3.77;;;;;;;13.13;51.00;102592.07;1726437;80;20924;-86
2022/10/17 14:40:20;;;;;;;6.12;4.25;;;;;;;13.04;51.37;102596.77;1714392;81;21563;-86
2022/10/17 14:42:47;;;;;;;7.17;4.28;;;;;;;12.96;51.72;102603.25;1763746;78;20948;-86
2022/10/17 14:45:21;;;;;;;7.75;4.10;;;;;;;12.88;52.24;102613.23;1776517;80;20916;-87
2022/10/17 14:47:50;;;;;;;11.00;4.97;;;;;;;12.79;52.88;102623.19;1779789;80;21271;-86
2022/10/17 14:50:27;;;;;;;7.72;3.98;;;;;;;12.69;53.83;102624.89;1779944;78;20956;-86
2022/10/17 14:53:18;;;;;;;9.40;6.10;;;;;;;12.60;54.69;102637.46;1777882;78;21015;-85
2022/10/17 14:55:56;;;;;;;12.63;5.55;;;;;;;12.50;55.93;102641.82;1780478;78;20936;-88
2022/10/17 14:58:31;;;;;;;23.02;8.50;;;;;;;12.37;56.73;102639.61;1776650;80;20979;-85
2022/10/17 15:01:00;;;;;;;20.15;9.25;;;;;;;12.27;56.99;102643.92;1779337;78;21942;-85
2022/10/17 15:03:27;;;;;;;20.40;8.05;;;;;;;12.15;56.88;102651.79;1777454;78;21421;-86
2022/10/17 15:05:55;;;;;;;23.92;9.48;;;;;;;12.05;57.20;102662.20;1779621;78;21082;-86
2022/10/17 15:08:22;;;;;;;19.75;11.65;;;;;;;11.93;57.73;102659.53;1780486;78;21019;-85
2022/10/17 15:10:49;;;;;;;55.12;28.25;;;;;;;11.82;58.13;102661.16;1778773;78;21034;-84
2022/10/17 15:13:16;;;;;;;55.60;31.60;;;;;;;11.70;58.58;102668.14;1772975;78;21181;-85
2022/10/17 15:15:44;;;;;;;70.62;37.17;;;;;;;11.58;59.13;102668.94;1779658;78;21073;-87
2022/10/17 15:18:13;;;;;;;65.80;33.63;;;;;;;11.47;59.62;102664.90;1759827;80;21465;-87
2022/10/17 15:20:41;;;;;;;54.33;28.92;;;;;;;11.37;59.97;102672.22;1778516;80;20916;-87
2022/10/17 15:23:07;;;;;;;59.77;29.15;;;;;;;11.28;60.50;102669.88;1757301;80;20944;-88
2022/10/17 15:25:35;;;;;;;71.67;37.75;;;;;;;11.17;61.05;102657.91;1776048;78;21711;-86
2022/10/17 15:28:02;;;;;;;81.70;39.83;;;;;;;11.09;61.41;102655.95;1777844;78;21433;-86
2022/10/17 15:30:31;;;;;;;65.20;34.90;;;;;;;11.01;62.21;102648.77;1778606;78;20931;-86
2022/10/17 15:32:58;;;;;;;71.10;39.73;;;;;;;10.96;62.75;102648.91;1780487;78;20924;-86
2022/10/17 15:35:25;;;;;;;74.53;41.45;;;;;;;10.92;62.83;102658.23;1768233;78;20893;-86
2022/10/17 15:37:52;;;;;;;90.92;48.63;;;;;;;10.82;63.15;102663.32;1764103;80;21085;-87
2022/10/17 15:40:24;;;;;;;86.17;48.80;;;;;;;10.77;63.42;102670.02;1735094;80;20992;-86
2022/10/17 15:42:51;;;;;;;98.75;56.02;;;;;;;10.72;63.79;102664.05;1741511;80;21075;-85
2022/10/17 15:45:22;;;;;;;102.15;55.28;;;;;;;10.68;64.01;102668.96;1756750;80;21457;-88
2022/10/17 15:47:53;;;;;;;82.53;47.55;;;;;;;10.64;64.11;102671.25;1773872;80;20944;-88
2022/10/17 15:50:20;;;;;;;79.60;45.88;;;;;;;10.56;63.96;102672.75;1767644;80;21245;-88
2022/10/17 15:52:51;;;;;;;114.55;67.08;;;;;;;10.46;63.94;102670.84;1757124;79;20959;-87
2022/10/17 15:55:18;;;;;;;310.65;193.78;;;;;;;10.36;64.19;102668.07;1776964;80;20923;-87
2022/10/17 15:57:45;;;;;;;332.57;216.08;;;;;;;10.25;64.37;102669.62;1737983;80;21130;-88
2022/10/17 16:00:19;;;;;;;401.50;254.53;;;;;;;10.16;64.65;102672.48;1769559;80;20975;-87
2022/10/17 16:02:46;;;;;;;444.52;295.27;;;;;;;10.07;64.89;102666.12;1775646;78;21198;-88
2022/10/17 16:05:25;;;;;;;387.65;248.78;;;;;;;10.01;65.17;102671.55;1779455;78;20908;-88
2022/10/17 16:07:52;;;;;;;245.00;159.10;;;;;;;9.96;65.17;102673.83;1779152;78;21071;-86
2022/10/17 16:10:21;;;;;;;209.27;133.95;;;;;;;9.92;65.37;102670.86;1780765;79;21026;-87
2022/10/17 16:12:51;;;;;;;183.72;116.57;;;;;;;9.88;65.47;102676.22;1775612;78;20920;-86